createdAt,value
2023-04-01T00:01:15.577Z,10.14
2023-04-01T00:03:42.451Z,10.13
2023-04-01T00:06:14.274Z,10.14
2023-04-01T00:08:41.016Z,10.13
2023-04-01T00:11:07.537Z,10.14
2023-04-01T00:13:34.232Z,10.14
2023-04-01T00:16:03.425Z,10.13
2023-04-01T00:18:30.713Z,10.14
2023-04-01T00:20:57.268Z,10.13
2023-04-01T00:23:23.856Z,10.13
2023-04-01T00:25:50.810Z,10.15
2023-04-01T00:28:19.569Z,10.14
2023-04-01T00:30:46.776Z,10.15
2023-04-01T00:33:13.381Z,10.15
2023-04-01T00:35:41.484Z,10.14
2023-04-01T00:38:08.602Z,10.14
2023-04-01T00:40:39.267Z,10.13
2023-04-01T00:43:12.720Z,10.12
2023-04-01T00:45:42.845Z,10.11
2023-04-01T00:48:19.552Z,10.12
2023-04-01T00:50:53.101Z,10.10
2023-04-01T00:53:21.496Z,10.11
2023-04-01T00:56:26.071Z,10.08
2023-04-01T00:58:59.986Z,10.08
2023-04-01T01:01:26.953Z,10.08
2023-04-01T01:03:53.598Z,10.07
2023-04-01T01:06:51.597Z,10.08
2023-04-01T01:09:36.102Z,10.06
2023-04-01T01:12:16.946Z,10.05
2023-04-01T01:14:49.331Z,10.04
2023-04-01T01:17:45.564Z,10.03
2023-04-01T01:20:34.010Z,10.02
2023-04-01T01:23:34.799Z,10.01
2023-04-01T01:26:38.628Z,9.99
2023-04-01T01:29:43.392Z,9.99
2023-04-01T01:32:27.388Z,9.97
2023-04-01T01:35:20.196Z,9.97
2023-04-01T01:37:50.924Z,9.96
2023-04-01T01:40:18.784Z,9.93
2023-04-01T01:42:51.184Z,9.94
2023-04-01T01:45:24.562Z,9.93
2023-04-01T01:47:52.957Z,9.92
2023-04-01T01:50:21.635Z,9.91
2023-04-01T01:52:48.295Z,9.89
2023-04-01T01:55:36.397Z,9.88
2023-04-01T01:58:15.522Z,9.85
2023-04-01T02:00:48.326Z,9.86
2023-04-01T02:03:18.082Z,9.84
2023-04-01T02:05:45.456Z,9.82
2023-04-01T02:08:27.903Z,9.81
2023-04-01T02:11:13.069Z,9.81
2023-04-01T02:13:58.073Z,9.77
2023-04-01T02:16:33.096Z,9.76
2023-04-01T02:19:02.815Z,9.73
2023-04-01T02:21:33.820Z,9.73
2023-04-01T02:24:05.499Z,9.71
2023-04-01T02:26:32.362Z,9.70
2023-04-01T02:29:02.889Z,9.69
2023-04-01T02:31:30.361Z,9.67
2023-04-01T02:33:57.518Z,9.66
2023-04-01T02:36:24.678Z,9.67
2023-04-01T02:38:55.533Z,9.65
2023-04-01T02:41:22.159Z,9.62
2023-04-01T02:43:48.690Z,9.61
2023-04-01T02:46:17.461Z,9.61
2023-04-01T02:48:44.166Z,9.58
2023-04-01T02:51:10.997Z,9.58
2023-04-01T02:53:37.501Z,9.57
2023-04-01T02:56:04.243Z,9.56
2023-04-01T02:58:30.901Z,9.56
2023-04-01T03:00:57.610Z,9.57
2023-04-01T03:03:24.162Z,9.56
2023-04-01T03:05:50.988Z,9.55
2023-04-01T03:08:17.495Z,9.56
2023-04-01T03:10:44.019Z,9.55
2023-04-01T03:13:10.560Z,9.53
2023-04-01T03:15:37.199Z,9.52
2023-04-01T03:18:04.401Z,9.53
2023-04-01T03:20:31.008Z,9.54
2023-04-01T03:22:57.497Z,9.50
2023-04-01T03:25:24.088Z,9.51
2023-04-01T03:27:50.965Z,9.52
2023-04-01T03:30:17.665Z,9.53
2023-04-01T03:32:44.305Z,9.53
2023-04-01T03:35:11.528Z,9.55
2023-04-01T03:37:38.365Z,9.53
2023-04-01T03:40:05.494Z,9.54
2023-04-01T03:42:33.278Z,9.55
2023-04-01T03:44:59.824Z,9.56
2023-04-01T03:47:26.391Z,9.57
2023-04-01T03:49:53.085Z,9.58
2023-04-01T03:52:19.605Z,9.58
2023-04-01T03:54:46.357Z,9.58
2023-04-01T03:57:12.914Z,9.59
2023-04-01T03:59:39.570Z,9.61
2023-04-01T04:02:06.434Z,9.62
2023-04-01T04:04:33.176Z,9.62
2023-04-01T04:06:59.799Z,9.63
2023-04-01T04:09:26.404Z,9.64
2023-04-01T04:11:53.164Z,9.65
2023-04-01T04:14:19.931Z,9.65
2023-04-01T04:16:46.482Z,9.66
2023-04-01T04:19:13.049Z,9.66
2023-04-01T04:21:41.084Z,9.68
2023-04-01T04:24:07.662Z,9.67
2023-04-01T04:26:34.214Z,9.68
2023-04-01T04:29:00.787Z,9.69
2023-04-01T04:31:27.791Z,9.69
2023-04-01T04:33:55.042Z,9.69
2023-04-01T04:36:23.019Z,9.70
2023-04-01T04:38:49.628Z,9.70
2023-04-01T04:41:18.829Z,9.72
2023-04-01T04:43:54.760Z,9.73
2023-04-01T04:46:22.228Z,9.73
2023-04-01T04:48:49.197Z,9.74
2023-04-01T04:51:20.808Z,9.76
2023-04-01T04:53:47.617Z,9.76
2023-04-01T04:56:18.122Z,9.78
2023-04-01T04:58:44.670Z,9.78
2023-04-01T05:01:14.282Z,9.80
2023-04-01T05:03:41.855Z,9.80
2023-04-01T05:06:11.065Z,9.82
2023-04-01T05:08:38.380Z,9.84
2023-04-01T05:11:05.093Z,9.84
2023-04-01T05:13:31.652Z,9.86
2023-04-01T05:15:58.241Z,9.86
2023-04-01T05:18:24.933Z,9.87
2023-04-01T05:20:54.593Z,9.87
2023-04-01T05:23:23.046Z,9.89
2023-04-01T05:25:52.001Z,9.89
2023-04-01T05:28:18.678Z,9.90
2023-04-01T05:30:45.739Z,9.91
2023-04-01T05:33:14.038Z,9.91
2023-04-01T05:35:41.801Z,9.92
2023-04-01T05:38:08.425Z,9.91
2023-04-01T05:40:35.426Z,9.91
2023-04-01T05:43:02.088Z,9.92
2023-04-01T05:45:28.735Z,9.92
2023-04-01T05:47:55.453Z,9.93
2023-04-01T05:50:22.101Z,9.93
2023-04-01T05:52:48.612Z,9.95
2023-04-01T05:55:15.422Z,9.95
2023-04-01T05:57:41.979Z,9.95
2023-04-01T06:00:08.954Z,9.97
2023-04-01T06:02:35.700Z,9.98
2023-04-01T06:05:19.156Z,9.99
2023-04-01T06:07:46.244Z,10.00
2023-04-01T06:10:19.982Z,10.00
2023-04-01T06:13:13.763Z,10.01
2023-04-01T06:15:51.538Z,10.02
2023-04-01T06:18:47.638Z,10.03
2023-04-01T06:21:34.159Z,10.03
2023-04-01T06:24:37.397Z,10.03
2023-04-01T06:27:51.406Z,10.03
2023-04-01T06:30:36.631Z,10.02
2023-04-01T06:33:31.728Z,10.05
2023-04-01T06:36:01.092Z,10.06
2023-04-01T06:38:39.718Z,10.05
2023-04-01T06:41:27.867Z,10.07
2023-04-01T06:44:05.433Z,10.09
2023-04-01T06:46:43.823Z,10.10
2023-04-01T06:49:42.137Z,10.10
2023-04-01T06:52:37.148Z,10.10
2023-04-01T06:55:26.972Z,10.13
2023-04-01T06:57:59.032Z,10.13
2023-04-01T07:00:37.835Z,10.15
2023-04-01T07:03:33.942Z,10.17
2023-04-01T07:06:07.002Z,10.19
2023-04-01T07:08:41.695Z,10.18
2023-04-01T07:11:15.282Z,10.21
2023-04-01T07:13:44.659Z,10.22
2023-04-01T07:16:31.085Z,10.20
2023-04-01T07:19:18.630Z,10.24
2023-04-01T07:22:04.425Z,10.29
2023-04-01T07:24:45.383Z,10.30
2023-04-01T07:27:14.457Z,10.30
2023-04-01T07:29:41.609Z,10.30
2023-04-01T07:32:17.705Z,10.33
2023-04-01T07:34:56.093Z,10.36
2023-04-01T07:37:50.606Z,10.35
2023-04-01T07:40:28.725Z,10.35
2023-04-01T07:43:23.046Z,10.38
2023-04-01T07:45:52.763Z,10.39
2023-04-01T07:48:33.948Z,10.40
2023-04-01T07:51:08.401Z,10.40
2023-04-01T07:53:51.107Z,10.40
2023-04-01T07:56:41.113Z,10.42
2023-04-01T07:59:30.450Z,10.44
2023-04-01T08:02:09.388Z,10.43
2023-04-01T08:04:46.536Z,10.43
2023-04-01T08:07:29.203Z,10.44
2023-04-01T08:10:19.172Z,10.45
2023-04-01T08:13:08.914Z,10.47
2023-04-01T08:16:06.848Z,10.49
2023-04-01T08:19:02.670Z,10.50
2023-04-01T08:21:36.680Z,10.50
2023-04-01T08:24:27.822Z,10.52
2023-04-01T08:27:04.328Z,10.54
2023-04-01T08:29:45.955Z,10.54
2023-04-01T08:32:38.734Z,10.54
2023-04-01T08:35:37.687Z,10.53
2023-04-01T08:38:19.363Z,10.54
2023-04-01T08:40:59.438Z,10.54
2023-04-01T08:43:26.142Z,10.56
2023-04-01T08:46:39.793Z,10.57
2023-04-01T08:49:09.289Z,10.59
2023-04-01T08:52:03.142Z,10.59
2023-04-01T08:55:01.475Z,10.61
2023-04-01T08:57:56.714Z,10.66
2023-04-01T09:00:33.693Z,10.72
2023-04-01T09:03:26.462Z,10.75
2023-04-01T09:06:20.558Z,10.79
2023-04-01T09:09:19.993Z,10.81
2023-04-01T09:12:12.651Z,10.81
2023-04-01T09:15:18.586Z,10.85
2023-04-01T09:18:05.326Z,10.89
2023-04-01T09:20:56.821Z,10.94
2023-04-01T09:24:07.545Z,10.94
2023-04-01T09:27:05.807Z,10.96
2023-04-01T09:29:51.369Z,10.96
2023-04-01T09:32:52.646Z,10.97
2023-04-01T09:35:41.921Z,10.97
2023-04-01T09:38:49.564Z,11.01
2023-04-01T09:41:32.110Z,11.07
2023-04-01T09:44:13.987Z,11.13
2023-04-01T09:47:04.709Z,11.26
2023-04-01T09:49:58.101Z,11.38
2023-04-01T09:52:54.004Z,11.47
2023-04-01T09:56:04.811Z,11.49
2023-04-01T09:59:03.458Z,11.53
2023-04-01T10:01:50.452Z,11.61
2023-04-01T10:04:44.876Z,11.74
2023-04-01T10:07:36.988Z,11.93
2023-04-01T10:10:09.296Z,12.12
2023-04-01T10:13:07.969Z,12.31
2023-04-01T10:16:13.699Z,12.42
2023-04-01T10:19:17.882Z,12.54
2023-04-01T10:21:53.395Z,12.63
2023-04-01T10:24:50.555Z,12.64
2023-04-01T10:27:38.745Z,12.68
2023-04-01T10:30:50.004Z,12.65
2023-04-01T10:33:49.071Z,12.59
2023-04-01T10:36:21.405Z,12.58
2023-04-01T10:39:25.733Z,12.50
2023-04-01T10:41:52.253Z,12.46
2023-04-01T10:44:42.306Z,12.46
2023-04-01T10:47:36.097Z,12.45
2023-04-01T10:50:21.096Z,12.49
2023-04-01T10:53:40.378Z,12.54
2023-04-01T10:56:33.251Z,12.68
2023-04-01T10:59:27.454Z,12.82
2023-04-01T11:02:31.727Z,12.90
2023-04-01T11:05:22.963Z,12.99
2023-04-01T11:08:05.265Z,12.91
2023-04-01T11:11:28.091Z,12.82
2023-04-01T11:14:16.105Z,12.72
2023-04-01T11:17:25.685Z,12.58
2023-04-01T11:20:09.363Z,12.53
2023-04-01T11:23:06.169Z,12.46
2023-04-01T11:25:54.430Z,12.40
2023-04-01T11:28:42.784Z,12.37
2023-04-01T11:31:44.490Z,12.34
2023-04-01T11:34:49.565Z,12.32
2023-04-01T11:37:53.418Z,12.33
2023-04-01T11:40:40.005Z,12.36
2023-04-01T11:43:32.455Z,12.41
2023-04-01T11:46:13.194Z,12.38
2023-04-01T11:48:52.021Z,12.33
2023-04-01T11:51:47.017Z,12.29
2023-04-01T11:54:51.351Z,12.24
2023-04-01T11:57:44.170Z,12.21
2023-04-01T12:00:22.615Z,12.17
2023-04-01T12:02:52.278Z,12.16
2023-04-01T12:05:51.390Z,12.18
2023-04-01T12:08:35.063Z,12.18
2023-04-01T12:11:17.203Z,12.21
2023-04-01T12:14:06.335Z,12.22
2023-04-01T12:16:51.459Z,12.21
2023-04-01T12:20:02.804Z,12.19
2023-04-01T12:22:40.890Z,12.20
2023-04-01T12:25:19.570Z,12.23
2023-04-01T12:28:04.834Z,12.20
2023-04-01T12:30:37.396Z,12.18
2023-04-01T12:33:37.199Z,12.17
2023-04-01T12:36:41.667Z,12.19
2023-04-01T12:39:42.091Z,12.21
2023-04-01T12:42:23.009Z,12.25
2023-04-01T12:44:52.625Z,12.26
2023-04-01T12:48:01.668Z,12.31
2023-04-01T12:51:29.008Z,12.40
2023-04-01T12:54:04.379Z,12.47
2023-04-01T12:56:59.449Z,12.55
2023-04-01T12:59:39.460Z,12.58
2023-04-01T13:02:24.283Z,12.58
2023-04-01T13:05:33.990Z,12.58
2023-04-01T13:08:28.923Z,12.58
2023-04-01T13:11:11.073Z,12.55
2023-04-01T13:14:02.518Z,12.51
2023-04-01T13:17:00.615Z,12.44
2023-04-01T13:20:04.384Z,12.40
2023-04-01T13:22:49.925Z,12.34
2023-04-01T13:25:54.454Z,12.29
2023-04-01T13:28:55.894Z,12.25
2023-04-01T13:31:38.836Z,12.21
2023-04-01T13:34:33.430Z,12.14
2023-04-01T13:37:02.945Z,12.13
2023-04-01T13:39:52.622Z,12.07
2023-04-01T13:42:27.295Z,12.09
2023-04-01T13:45:04.024Z,12.13
2023-04-01T13:48:01.200Z,12.09
2023-04-01T13:50:47.768Z,12.10
2023-04-01T13:53:26.465Z,12.07
2023-04-01T13:56:03.208Z,12.07
2023-04-01T13:58:41.628Z,12.04
2023-04-01T14:01:40.823Z,12.03
2023-04-01T14:04:25.940Z,11.99
2023-04-01T14:07:17.720Z,12.01
2023-04-01T14:10:00.611Z,11.96
2023-04-01T14:12:40.287Z,11.89
2023-04-01T14:15:23.361Z,11.83
2023-04-01T14:18:24.983Z,11.75
2023-04-01T14:21:10.351Z,11.68
2023-04-01T14:23:55.485Z,11.64
2023-04-01T14:26:58.872Z,11.61
2023-04-01T14:29:43.655Z,11.58
2023-04-01T14:32:40.516Z,11.52
2023-04-01T14:35:28.738Z,11.46
2023-04-01T14:38:26.319Z,11.41
2023-04-01T14:41:27.344Z,11.37
2023-04-01T14:44:18.668Z,11.32
2023-04-01T14:47:03.631Z,11.27
2023-04-01T14:50:34.966Z,11.25
2023-04-01T14:53:23.127Z,11.23
2023-04-01T14:56:01.762Z,11.21
2023-04-01T14:58:44.348Z,11.18
2023-04-01T15:01:35.819Z,11.19
2023-04-01T15:04:33.677Z,11.17
2023-04-01T15:07:23.970Z,11.16
2023-04-01T15:10:20.824Z,11.18
2023-04-01T15:13:19.456Z,11.16
2023-04-01T15:15:57.902Z,11.16
2023-04-01T15:19:01.907Z,11.17
2023-04-01T15:21:43.062Z,11.19
2023-04-01T15:25:01.328Z,11.21
2023-04-01T15:27:50.376Z,11.25
2023-04-01T15:30:32.446Z,11.24
2023-04-01T15:33:15.020Z,11.23
2023-04-01T15:36:21.646Z,11.23
2023-04-01T15:39:00.487Z,11.22
2023-04-01T15:42:00.943Z,11.21
2023-04-01T15:44:53.538Z,11.21
2023-04-01T15:47:26.179Z,11.17
2023-04-01T15:50:08.012Z,11.16
2023-04-01T15:53:05.741Z,11.12
2023-04-01T15:56:09.456Z,11.10
2023-04-01T15:59:21.112Z,11.05
2023-04-01T16:02:08.015Z,11.02
2023-04-01T16:04:59.830Z,10.97
2023-04-01T16:07:54.732Z,10.91
2023-04-01T16:10:58.650Z,10.89
2023-04-01T16:13:30.967Z,10.84
2023-04-01T16:16:16.418Z,10.79
2023-04-01T16:18:49.558Z,10.74
2023-04-01T16:21:37.209Z,10.73
2023-04-01T16:24:13.590Z,10.72
2023-04-01T16:27:35.934Z,10.67
2023-04-01T16:30:28.647Z,10.63
2023-04-01T16:33:08.840Z,10.58
2023-04-01T16:35:59.188Z,10.57
2023-04-01T16:38:32.041Z,10.53
2023-04-01T16:41:10.659Z,10.51
2023-04-01T16:43:57.056Z,10.44
2023-04-01T16:46:59.126Z,10.40
2023-04-01T16:49:56.513Z,10.39
2023-04-01T16:53:04.456Z,10.36
2023-04-01T16:55:46.032Z,10.33
2023-04-01T16:58:23.877Z,10.25
2023-04-01T17:00:59.679Z,10.19
2023-04-01T17:03:40.658Z,10.13
2023-04-01T17:06:32.245Z,10.07
2023-04-01T17:09:23.695Z,10.04
2023-04-01T17:12:11.902Z,9.99
2023-04-01T17:14:44.422Z,9.96
2023-04-01T17:17:34.717Z,9.94
2023-04-01T17:20:40.661Z,9.92
2023-04-01T17:23:35.076Z,9.84
2023-04-01T17:26:26.120Z,9.83
2023-04-01T17:29:30.398Z,9.79
2023-04-01T17:32:18.770Z,9.79
2023-04-01T17:34:57.521Z,9.79
2023-04-01T17:37:31.034Z,9.78
2023-04-01T17:40:33.881Z,9.75
2023-04-01T17:43:36.053Z,9.74
2023-04-01T17:46:12.667Z,9.72
2023-04-01T17:48:49.358Z,9.69
2023-04-01T17:51:32.677Z,9.68
2023-04-01T17:54:22.680Z,9.66
2023-04-01T17:57:28.088Z,9.63
2023-04-01T18:00:12.748Z,9.61
2023-04-01T18:02:45.645Z,9.61
2023-04-01T18:05:24.424Z,9.58
2023-04-01T18:08:24.931Z,9.54
2023-04-01T18:11:14.262Z,9.53
2023-04-01T18:13:52.299Z,9.50
2023-04-01T18:16:38.946Z,9.49
2023-04-01T18:19:28.702Z,9.49
2023-04-01T18:22:11.753Z,9.46
2023-04-01T18:24:59.394Z,9.43
2023-04-01T18:27:37.328Z,9.40
2023-04-01T18:30:18.122Z,9.40
2023-04-01T18:32:47.356Z,9.37
2023-04-01T18:35:30.107Z,9.34
2023-04-01T18:38:26.766Z,9.32
2023-04-01T18:41:16.804Z,9.29
2023-04-01T18:44:03.915Z,9.27
2023-04-01T18:46:38.395Z,9.27
2023-04-01T18:49:23.791Z,9.24
2023-04-01T18:51:56.835Z,9.24
2023-04-01T18:54:33.372Z,9.21
2023-04-01T18:57:11.811Z,9.20
2023-04-01T18:59:57.967Z,9.19
2023-04-01T19:02:37.033Z,9.19
2023-04-01T19:05:09.882Z,9.17
2023-04-01T19:08:11.538Z,9.15
2023-04-01T19:10:39.981Z,9.12
2023-04-01T19:13:38.664Z,9.11
2023-04-01T19:16:25.770Z,9.08
2023-04-01T19:19:13.641Z,9.08
2023-04-01T19:21:48.517Z,9.05
2023-04-01T19:24:56.224Z,9.02
2023-04-01T19:27:51.131Z,9.01
2023-04-01T19:30:34.313Z,8.98
2023-04-01T19:33:34.539Z,8.95
2023-04-01T19:36:26.497Z,8.92
2023-04-01T19:39:28.334Z,8.89
2023-04-01T19:42:13.321Z,8.86
2023-04-01T19:44:57.499Z,8.85
2023-04-01T19:47:58.010Z,8.83
2023-04-01T19:51:07.099Z,8.81
2023-04-01T19:54:17.473Z,8.81
2023-04-01T19:56:59.818Z,8.77
2023-04-01T19:59:43.566Z,8.74
2023-04-01T20:02:11.942Z,8.73
2023-04-01T20:04:45.660Z,8.71
2023-04-01T20:07:24.518Z,8.68
2023-04-01T20:10:16.532Z,8.64
2023-04-01T20:13:03.509Z,8.63
2023-04-01T20:16:03.913Z,8.62
2023-04-01T20:18:50.435Z,8.58
2023-04-01T20:21:36.017Z,8.60
2023-04-01T20:24:14.805Z,8.56
2023-04-01T20:27:00.616Z,8.54
2023-04-01T20:30:04.598Z,8.52
2023-04-01T20:32:34.004Z,8.50
2023-04-01T20:35:23.732Z,8.46
2023-04-01T20:38:12.129Z,8.44
2023-04-01T20:40:45.396Z,8.41
2023-04-01T20:43:30.847Z,8.38
2023-04-01T20:46:01.517Z,8.35
2023-04-01T20:48:46.608Z,8.32
2023-04-01T20:51:25.055Z,8.31
2023-04-01T20:54:13.043Z,8.28
2023-04-01T20:57:11.729Z,8.26
2023-04-01T20:59:47.313Z,8.25
2023-04-01T21:03:02.175Z,8.25
2023-04-01T21:05:53.534Z,8.24
2023-04-01T21:08:31.623Z,8.25
2023-04-01T21:11:10.101Z,8.22
2023-04-01T21:13:52.863Z,8.21
2023-04-01T21:16:39.690Z,8.17
2023-04-01T21:19:11.842Z,8.16
2023-04-01T21:22:08.073Z,8.13
2023-04-01T21:25:00.831Z,8.09
2023-04-01T21:28:05.046Z,8.07
2023-04-01T21:30:59.701Z,8.05
2023-04-01T21:33:31.941Z,8.04
2023-04-01T21:36:40.686Z,7.99
2023-04-01T21:39:19.300Z,7.94
2023-04-01T21:41:55.932Z,7.91
2023-04-01T21:44:37.667Z,7.88
2023-04-01T21:47:28.686Z,7.87
2023-04-01T21:50:29.958Z,7.84
2023-04-01T21:53:15.756Z,7.81
2023-04-01T21:56:20.428Z,7.79
2023-04-01T21:59:08.590Z,7.77
2023-04-01T22:02:01.466Z,7.75
2023-04-01T22:04:55.654Z,7.75
2023-04-01T22:07:30.440Z,7.72
2023-04-01T22:10:17.974Z,7.68
2023-04-01T22:12:51.996Z,7.67
2023-04-01T22:15:33.357Z,7.65
2023-04-01T22:18:18.093Z,7.61
2023-04-01T22:21:07.566Z,7.58
2023-04-01T22:23:48.206Z,7.56
2023-04-01T22:26:43.114Z,7.50
2023-04-01T22:29:28.774Z,7.50
2023-04-01T22:32:17.398Z,7.48
2023-04-01T22:35:18.620Z,7.45
2023-04-01T22:37:58.098Z,7.45
2023-04-01T22:41:08.280Z,7.43
2023-04-01T22:43:42.096Z,7.41
2023-04-01T22:46:23.625Z,7.39
2023-04-01T22:49:02.861Z,7.37
2023-04-01T22:51:45.765Z,7.32
2023-04-01T22:54:27.797Z,7.31
2023-04-01T22:57:11.231Z,7.30
2023-04-01T22:59:51.621Z,7.29
2023-04-01T23:02:26.938Z,7.28
2023-04-01T23:04:58.970Z,7.26
2023-04-01T23:07:37.778Z,7.21
2023-04-01T23:10:31.191Z,7.19
2023-04-01T23:13:04.470Z,7.17
2023-04-01T23:15:35.563Z,7.16
2023-04-01T23:18:13.793Z,7.13
2023-04-01T23:20:59.101Z,7.11
2023-04-01T23:23:59.225Z,7.10
2023-04-01T23:26:44.237Z,7.09
2023-04-01T23:29:20.037Z,7.08
2023-04-01T23:31:47.878Z,7.08
2023-04-01T23:34:14.436Z,7.05
2023-04-01T23:37:06.248Z,7.03
2023-04-01T23:39:38.379Z,7.00
2023-04-01T23:42:28.382Z,7.00
2023-04-01T23:45:05.763Z,6.96
2023-04-01T23:47:36.453Z,6.93
2023-04-01T23:50:18.719Z,6.91
2023-04-01T23:53:02.912Z,6.89
2023-04-01T23:55:34.117Z,6.91
2023-04-01T23:58:05.926Z,6.90
